< Typhoon 197613 1976 Season Typhoon 197615 >
Typhoon 197614 (CLARA)
General InformationTrack Information on Google Maps || Disaster Info.ResourceGoogle EarthGE AnimationAtom FeedGeoJSON
Detalied Best Track (Time Zone = UTC)
Year Month Day Hour Lat. Long. Pressure (hPa) Wind (kt) Class Image Chart
1976 8 2 00 14.8 118.0 1006 0 2 -- Chart
1976 8 2 06 15.4 117.6 1006 0 2 -- Chart
1976 8 2 12 15.8 117.4 1006 0 2 -- Chart
1976 8 2 18 16.3 117.1 1006 0 2 -- Chart
1976 8 3 00 16.5 116.5 1004 0 2 -- Chart
1976 8 3 06 16.7 116.0 1004 0 2 -- Chart
1976 8 3 12 17.4 115.6 1004 0 2 -- Chart
1976 8 3 18 17.8 115.2 1002 0 2 -- Chart
1976 8 4 00 18.5 115.0 1002 0 2 -- Chart
1976 8 4 06 18.7 114.5 996 0 2 -- Chart
1976 8 4 12 19.0 114.3 996 0 2 -- Chart
1976 8 4 18 19.0 114.0 996 0 2 -- Chart
1976 8 5 00 19.0 113.6 996 0 2 -- Chart
1976 8 5 06 19.4 113.4 996 0 2 -- Chart
1976 8 5 12 19.7 113.6 996 0 2 -- Chart
1976 8 5 18 20.0 114.0 992 0 2 -- Chart
1976 8 6 00 20.4 113.8 985 0 9 -- Chart
1976 8 6 06 21.0 113.7 985 0 9 -- Chart
1976 8 6 12 21.7 113.0 985 0 9 -- Chart
1976 8 6 18 22.5 112.0 990 0 9 -- Chart
1976 8 7 00 22.5 110.5 998 0 9 -- Chart
Japan Meteorological Agency Best Track Data | Correction Date : 1992-10-21
< Typhoon 197613 1976 Season Typhoon 197615 >

Help